Time;durP1;ratioP1;P1;durP2;ratioP2;P2;SDS_P1;SDS_P2;PMS_P1;PMS_P2;Temp;Humidity;BMP_temperature;BMP_pressure;BME280_temperature;BME280_humidity;BME280_pressure;Samples;Min_cycle;Max_cycle;Signal;HPM_P1;HPM_P2
2022/10/27 00:02:14;;;;;;;16.62;12.37;;;;;;;8.24;100.00;98847.17;1835104;77;21985;-58
2022/10/27 00:04:41;;;;;;;19.48;12.05;;;;;;;8.25;100.00;98858.14;1839838;77;20904;-59
2022/10/27 00:07:07;;;;;;;16.55;11.45;;;;;;;8.27;100.00;98855.23;1819392;77;20883;-60
2022/10/27 00:09:34;;;;;;;13.62;10.85;;;;;;;8.27;100.00;98853.13;1825403;77;20876;-59
2022/10/27 00:12:03;;;;;;;14.33;11.65;;;;;;;8.27;100.00;98855.79;1831659;77;21010;-59
2022/10/27 00:14:30;;;;;;;16.42;12.15;;;;;;;8.25;100.00;98857.33;1819334;77;21302;-60
2022/10/27 00:16:56;;;;;;;13.40;11.70;;;;;;;8.23;100.00;98857.59;1814716;77;20955;-59
2022/10/27 00:19:24;;;;;;;14.18;12.18;;;;;;;8.24;100.00;98860.52;1820648;77;20911;-61
2022/10/27 00:21:51;;;;;;;14.63;11.20;;;;;;;8.23;100.00;98860.78;1825337;77;20861;-59
2022/10/27 00:24:19;;;;;;;14.60;10.60;;;;;;;8.19;100.00;98860.50;1820095;77;21368;-58
2022/10/27 00:26:46;;;;;;;14.78;11.15;;;;;;;8.15;100.00;98865.23;1831183;77;21227;-62
2022/10/27 00:29:14;;;;;;;13.83;11.97;;;;;;;8.14;100.00;98864.45;1825683;77;21014;-59
2022/10/27 00:31:41;;;;;;;17.48;12.75;;;;;;;8.12;100.00;98863.91;1821621;77;20895;-60
2022/10/27 00:34:08;;;;;;;14.50;12.00;;;;;;;8.11;100.00;98867.63;1820339;77;21470;-60
2022/10/27 00:36:35;;;;;;;16.07;11.55;;;;;;;8.07;100.00;98867.86;1830781;77;20911;-58
2022/10/27 00:39:02;;;;;;;16.12;11.40;;;;;;;8.07;100.00;98862.52;1830249;77;21035;-59
2022/10/27 00:41:36;;;;;;;15.50;12.43;;;;;;;8.06;100.00;98861.42;1818220;77;20825;-59
2022/10/27 00:44:31;;;;;;;15.38;12.37;;;;;;;8.04;100.00;98867.55;1823432;77;21042;-59
2022/10/27 00:47:08;;;;;;;13.03;11.68;;;;;;;8.01;100.00;98862.18;1835028;77;20990;-57
2022/10/27 00:49:41;;;;;;;16.95;12.25;;;;;;;7.97;100.00;98870.42;1829077;77;20895;-58
2022/10/27 00:52:28;;;;;;;12.70;11.38;;;;;;;7.99;100.00;98865.63;1819296;77;21224;-57
2022/10/27 00:54:59;;;;;;;16.62;11.95;;;;;;;8.00;100.00;98869.92;1819961;77;21489;-60
2022/10/27 00:57:26;;;;;;;17.15;13.08;;;;;;;8.00;100.00;98863.78;1828695;77;21035;-60
2022/10/27 00:59:52;;;;;;;17.42;12.37;;;;;;;7.96;100.00;98862.12;1824405;77;20939;-59
2022/10/27 01:02:19;;;;;;;15.43;11.75;;;;;;;7.94;100.00;98858.91;1811270;77;21533;-60
2022/10/27 01:05:03;;;;;;;18.73;12.75;;;;;;;7.94;100.00;98870.10;1831506;77;21159;-60
2022/10/27 01:07:30;;;;;;;16.93;14.47;;;;;;;7.93;100.00;98863.98;1823095;77;20947;-58
2022/10/27 01:09:57;;;;;;;22.48;15.55;;;;;;;7.96;100.00;98860.80;1816872;77;20915;-58
2022/10/27 01:12:23;;;;;;;19.67;14.58;;;;;;;8.01;100.00;98866.19;1827418;77;21036;-57
2022/10/27 01:14:50;;;;;;;16.90;13.98;;;;;;;8.04;100.00;98868.88;1819660;77;20947;-58
2022/10/27 01:17:31;;;;;;;20.88;14.33;;;;;;;8.05;100.00;98868.64;1839189;77;21858;-60
2022/10/27 01:20:36;;;;;;;19.00;15.30;;;;;;;8.08;100.00;98875.31;1811312;77;20891;-58
2022/10/27 01:23:17;;;;;;;18.42;15.78;;;;;;;8.12;100.00;98874.58;1817341;77;20911;-60
2022/10/27 01:26:22;;;;;;;19.40;14.90;;;;;;;8.16;100.00;98875.68;1829465;77;20997;-60
2022/10/27 01:29:09;;;;;;;19.20;15.45;;;;;;;8.19;100.00;98879.19;1819559;77;20869;-60
2022/10/27 01:32:06;;;;;;;20.72;15.90;;;;;;;8.18;100.00;98870.89;1836375;77;21498;-57
2022/10/27 01:34:47;;;;;;;19.92;16.70;;;;;;;8.18;100.00;98877.56;1832030;77;21019;-57
2022/10/27 01:37:24;;;;;;;19.82;16.07;;;;;;;8.18;100.00;98877.56;1817849;77;20900;-59
2022/10/27 01:40:01;;;;;;;20.40;14.30;;;;;;;8.20;100.00;98875.44;1844500;77;20990;-57
2022/10/27 01:42:33;;;;;;;17.80;14.33;;;;;;;8.25;100.00;98882.16;1820461;77;20942;-58
2022/10/27 01:45:00;;;;;;;17.77;14.63;;;;;;;8.32;100.00;98883.31;1825898;77;21237;-59
2022/10/27 01:47:26;;;;;;;19.82;14.15;;;;;;;8.38;100.00;98890.32;1816579;77;21022;-60
2022/10/27 01:49:53;;;;;;;17.07;13.83;;;;;;;8.45;100.00;98895.44;1823230;77;21133;-60
2022/10/27 01:52:47;;;;;;;17.10;14.33;;;;;;;8.52;100.00;98893.36;1812739;77;20982;-58
2022/10/27 01:55:27;;;;;;;17.42;14.73;;;;;;;8.58;100.00;98893.67;1812089;77;20960;-60
2022/10/27 01:58:29;;;;;;;17.67;14.23;;;;;;;8.64;100.00;98896.67;1825743;77;21167;-60
2022/10/27 02:12:49;;;;;;;19.20;14.73;;;;;;;8.76;100.00;98897.30;1821076;77;21080;-57
2022/10/27 02:15:33;;;;;;;19.55;15.32;;;;;;;8.81;100.00;98898.64;1832160;77;21519;-56
2022/10/27 02:18:04;;;;;;;20.88;15.43;;;;;;;8.84;100.00;98902.14;1817785;77;20846;-59
2022/10/27 02:20:36;;;;;;;19.35;13.98;;;;;;;8.87;100.00;98904.31;1819410;77;21522;-58
2022/10/27 02:23:06;;;;;;;18.90;14.13;;;;;;;8.90;100.00;98905.14;1831684;77;20879;-59
2022/10/27 02:25:41;;;;;;;18.02;14.38;;;;;;;8.93;100.00;98903.27;1829635;77;21699;-59
2022/10/27 02:28:08;;;;;;;17.75;14.83;;;;;;;8.95;100.00;98901.14;1821395;77;20875;-58
2022/10/27 02:30:35;;;;;;;21.30;15.38;;;;;;;8.98;100.00;98911.33;1823854;77;21505;-59
2022/10/27 02:33:02;;;;;;;18.90;14.63;;;;;;;8.99;100.00;98910.27;1800523;77;20931;-60
2022/10/27 02:35:29;;;;;;;17.32;13.95;;;;;;;9.00;100.00;98905.19;1819090;77;20931;-59
2022/10/27 02:37:58;;;;;;;18.95;15.83;;;;;;;9.02;100.00;98901.72;1816549;77;21230;-59
2022/10/27 02:40:25;;;;;;;18.27;15.55;;;;;;;9.05;100.00;98909.23;1819473;77;21402;-57
2022/10/27 02:42:51;;;;;;;17.40;14.68;;;;;;;9.05;100.00;98907.89;1812964;77;20844;-58
2022/10/27 02:45:19;;;;;;;19.60;15.30;;;;;;;9.07;100.00;98906.32;1842137;77;20880;-58
2022/10/27 02:47:46;;;;;;;20.62;15.53;;;;;;;9.06;100.00;98910.86;1819557;77;20911;-58
2022/10/27 02:50:13;;;;;;;21.62;16.07;;;;;;;9.06;100.00;98918.87;1827621;77;21827;-57
2022/10/27 02:52:42;;;;;;;19.82;16.52;;;;;;;9.07;100.00;98909.77;1826562;77;20814;-60
2022/10/27 02:55:10;;;;;;;17.82;14.60;;;;;;;9.06;100.00;98912.72;1825847;77;21023;-59
2022/10/27 02:57:36;;;;;;;19.85;14.25;;;;;;;9.02;100.00;98916.42;1816669;77;21049;-58
2022/10/27 03:00:05;;;;;;;16.97;15.18;;;;;;;8.98;100.00;98920.67;1828452;77;20845;-58
2022/10/27 03:02:32;;;;;;;19.92;15.15;;;;;;;8.94;100.00;98924.94;1836813;77;21060;-58
2022/10/27 03:04:58;;;;;;;17.23;15.43;;;;;;;8.90;100.00;98921.95;1824020;77;20896;-59
2022/10/27 03:07:25;;;;;;;21.75;15.90;;;;;;;8.90;100.00;98929.19;1819277;77;20864;-58
2022/10/27 03:09:52;;;;;;;18.05;14.68;;;;;;;8.92;100.00;98926.53;1822687;77;20874;-59
2022/10/27 03:12:18;;;;;;;20.20;15.05;;;;;;;8.94;100.00;98923.59;1830720;77;21402;-58
2022/10/27 03:14:45;;;;;;;19.50;15.43;;;;;;;8.98;100.00;98923.34;1832673;77;21301;-60
2022/10/27 03:17:13;;;;;;;18.62;15.45;;;;;;;9.02;100.00;98929.78;1816385;77;20950;-59
2022/10/27 03:19:40;;;;;;;19.15;15.45;;;;;;;9.06;100.00;98929.56;1822977;77;20876;-61
2022/10/27 03:22:07;;;;;;;20.35;13.90;;;;;;;9.12;100.00;98930.38;1829818;77;20931;-58
2022/10/27 03:24:34;;;;;;;20.85;15.72;;;;;;;9.16;100.00;98922.14;1810960;77;20923;-58
2022/10/27 03:27:00;;;;;;;17.02;15.20;;;;;;;9.21;100.00;98926.97;1816530;77;21055;-60
2022/10/27 03:29:27;;;;;;;20.00;15.10;;;;;;;9.25;100.00;98929.94;1816723;77;21536;-60
2022/10/27 03:31:53;;;;;;;17.82;15.08;;;;;;;9.23;100.00;98924.83;1825113;77;21393;-59
2022/10/27 03:34:20;;;;;;;19.87;14.50;;;;;;;9.21;100.00;98914.94;1828452;77;20918;-59
2022/10/27 03:36:48;;;;;;;24.45;14.98;;;;;;;9.21;100.00;98921.62;1829655;77;21100;-59
2022/10/27 03:39:15;;;;;;;20.45;17.02;;;;;;;9.23;100.00;98934.75;1823060;77;21223;-60
2022/10/27 03:41:41;;;;;;;18.52;16.52;;;;;;;9.18;100.00;98926.17;1809921;77;20939;-60
2022/10/27 03:44:10;;;;;;;17.27;15.18;;;;;;;9.14;100.00;98931.73;1840485;77;20993;-59
2022/10/27 03:46:37;;;;;;;16.65;14.33;;;;;;;9.12;100.00;98929.86;1819450;77;20876;-60
2022/10/27 03:49:04;;;;;;;18.40;15.35;;;;;;;9.11;100.00;98940.81;1830636;77;21059;-57
2022/10/27 03:51:30;;;;;;;18.55;16.60;;;;;;;9.07;100.00;98935.16;1838916;77;21286;-57
2022/10/27 03:53:57;;;;;;;20.23;17.20;;;;;;;9.05;100.00;98935.95;1819392;77;21375;-57
2022/10/27 03:56:23;;;;;;;22.77;16.60;;;;;;;9.04;100.00;98933.03;1810098;77;20912;-58
2022/10/27 03:58:50;;;;;;;20.85;18.25;;;;;;;9.01;100.00;98928.19;1823514;77;21427;-58
2022/10/27 04:01:17;;;;;;;24.45;21.68;;;;;;;8.96;100.00;98929.48;1832348;77;20963;-59
2022/10/27 04:03:43;;;;;;;27.73;24.80;;;;;;;8.90;100.00;98930.52;1821046;77;21219;-61
2022/10/27 04:06:10;;;;;;;25.02;22.32;;;;;;;8.86;100.00;98923.54;1790841;77;21589;-60
2022/10/27 04:08:37;;;;;;;23.02;20.25;;;;;;;8.79;100.00;98926.14;1810725;77;20990;-59
2022/10/27 04:11:04;;;;;;;22.32;19.75;;;;;;;8.69;100.00;98922.08;1823108;77;20916;-57
2022/10/27 04:13:31;;;;;;;21.25;18.07;;;;;;;8.60;100.00;98923.06;1827910;77;21020;-59
2022/10/27 04:16:00;;;;;;;21.97;18.92;;;;;;;8.54;100.00;98932.63;1826830;77;21100;-59
2022/10/27 04:18:27;;;;;;;21.52;18.10;;;;;;;8.47;100.00;98930.70;1829981;77;21379;-58
2022/10/27 04:21:03;;;;;;;20.57;17.42;;;;;;;8.42;100.00;98930.65;1835056;77;20978;-58
2022/10/27 04:23:30;;;;;;;20.37;17.42;;;;;;;8.38;100.00;98928.22;1825222;77;20963;-59
2022/10/27 04:25:59;;;;;;;21.20;18.75;;;;;;;8.32;100.00;98935.36;1825951;77;20875;-58
2022/10/27 04:28:26;;;;;;;23.38;20.23;;;;;;;8.30;100.00;98934.00;1842513;77;21744;-59
2022/10/27 04:30:54;;;;;;;23.52;19.15;;;;;;;8.32;100.00;98937.22;1831089;77;21400;-59
2022/10/27 04:33:22;;;;;;;18.87;16.65;;;;;;;8.32;100.00;98936.70;1820935;77;20942;-59
2022/10/27 04:35:48;;;;;;;18.25;15.70;;;;;;;8.30;100.00;98932.14;1810065;77;21007;-59
2022/10/27 04:38:15;;;;;;;18.67;16.02;;;;;;;8.30;100.00;98939.34;1822897;77;20884;-59
2022/10/27 04:40:42;;;;;;;19.07;16.87;;;;;;;8.23;100.00;98932.84;1824417;77;21197;-60
2022/10/27 04:43:08;;;;;;;22.95;16.95;;;;;;;8.18;100.00;98933.60;1832889;77;20916;-59
2022/10/27 04:45:35;;;;;;;20.17;16.85;;;;;;;8.13;100.00;98933.55;1827216;77;20958;-62
2022/10/27 04:48:03;;;;;;;23.83;17.25;;;;;;;8.05;100.00;98942.02;1822947;77;21085;-59
2022/10/27 04:50:30;;;;;;;19.23;15.72;;;;;;;7.94;100.00;98949.61;1825775;77;21016;-61
2022/10/27 04:53:00;;;;;;;21.15;16.42;;;;;;;7.87;100.00;98947.66;1831061;77;21168;-60
2022/10/27 04:55:29;;;;;;;18.45;16.02;;;;;;;7.84;100.00;98956.19;1812967;78;20931;-60
2022/10/27 04:57:55;;;;;;;19.05;16.45;;;;;;;7.83;100.00;98956.41;1825846;77;21432;-61
2022/10/27 05:00:22;;;;;;;21.80;18.85;;;;;;;7.85;100.00;98959.11;1803195;77;21074;-61
2022/10/27 05:02:55;;;;;;;27.15;20.15;;;;;;;7.85;100.00;98963.12;1760513;80;21566;-59
2022/10/27 05:05:25;;;;;;;35.48;26.07;;;;;;;7.85;100.00;98969.78;1804034;78;21817;-60
2022/10/27 05:07:57;;;;;;;37.98;26.75;;;;;;;7.86;100.00;98964.74;1802021;77;21588;-60
2022/10/27 05:10:24;;;;;;;37.88;26.52;;;;;;;7.88;100.00;98970.63;1807448;77;21184;-59
2022/10/27 05:12:50;;;;;;;32.13;26.20;;;;;;;7.91;100.00;98970.14;1808540;77;21030;-59
2022/10/27 05:15:18;;;;;;;35.73;26.73;;;;;;;7.95;100.00;98978.44;1772378;80;20889;-59
2022/10/27 05:17:45;;;;;;;30.55;24.72;;;;;;;7.93;100.00;98976.03;1820178;77;21224;-58
2022/10/27 05:20:11;;;;;;;30.00;25.12;;;;;;;7.91;100.00;98983.48;1813351;77;20861;-58
2022/10/27 05:22:38;;;;;;;39.83;32.15;;;;;;;7.89;100.00;98993.56;1812127;77;21010;-59
2022/10/27 05:25:07;;;;;;;40.73;29.02;;;;;;;7.94;100.00;98989.63;1812604;77;21253;-59
2022/10/27 05:27:36;;;;;;;34.85;29.57;;;;;;;7.96;100.00;98990.73;1809287;77;21083;-58
2022/10/27 05:30:06;;;;;;;41.37;28.95;;;;;;;8.00;100.00;98989.98;1816848;77;21244;-59
2022/10/27 05:32:33;;;;;;;35.05;24.20;;;;;;;8.03;100.00;98983.34;1829716;77;21573;-58
2022/10/27 05:35:00;;;;;;;29.85;22.60;;;;;;;8.09;100.00;98991.16;1818769;77;20899;-59
2022/10/27 05:37:26;;;;;;;36.55;22.37;;;;;;;8.16;100.00;98994.95;1802971;77;21383;-60
2022/10/27 05:39:53;;;;;;;28.87;21.00;;;;;;;8.22;100.00;98989.41;1809368;77;21089;-59
2022/10/27 05:42:20;;;;;;;28.95;23.38;;;;;;;8.31;100.00;98993.83;1754717;80;21911;-61
2022/10/27 05:44:48;;;;;;;33.73;24.92;;;;;;;8.38;100.00;98997.10;1735803;80;20884;-60
2022/10/27 05:47:16;;;;;;;33.28;24.27;;;;;;;8.40;100.00;98992.84;1824677;77;20919;-58
2022/10/27 05:49:45;;;;;;;30.40;22.37;;;;;;;8.45;100.00;99000.38;1791144;79;20916;-59
2022/10/27 05:52:12;;;;;;;35.52;23.85;;;;;;;8.55;100.00;98999.67;1825611;77;21406;-58
2022/10/27 05:54:39;;;;;;;38.50;24.52;;;;;;;8.64;100.00;99007.50;1824439;77;21261;-61
2022/10/27 05:57:06;;;;;;;41.88;24.50;;;;;;;8.72;100.00;99011.03;1819111;77;21094;-60
2022/10/27 05:59:33;;;;;;;30.43;22.17;;;;;;;8.79;100.00;99015.11;1824350;77;21548;-60
2022/10/27 06:02:00;;;;;;;29.63;22.40;;;;;;;8.87;100.00;99023.20;1809528;77;20978;-59
2022/10/27 06:04:27;;;;;;;36.98;24.02;;;;;;;8.94;100.00;99023.27;1826787;78;20956;-58
2022/10/27 06:06:54;;;;;;;52.88;22.85;;;;;;;9.04;100.00;99033.24;1811784;77;21117;-59
2022/10/27 06:09:20;;;;;;;34.83;21.85;;;;;;;9.13;100.00;99026.36;1788834;77;20914;-58
2022/10/27 06:11:47;;;;;;;30.17;21.37;;;;;;;9.24;100.00;99029.90;1798852;78;21066;-58
2022/10/27 06:14:13;;;;;;;27.15;20.55;;;;;;;9.35;100.00;99031.05;1785486;78;21038;-59
2022/10/27 06:16:41;;;;;;;31.93;21.62;;;;;;;9.46;100.00;99035.95;1797981;78;21661;-62
2022/10/27 06:19:09;;;;;;;26.80;20.75;;;;;;;9.56;100.00;99038.70;1782346;78;21233;-59
2022/10/27 06:21:36;;;;;;;22.15;18.32;;;;;;;9.62;100.00;99038.47;1820772;78;21100;-59
2022/10/27 06:24:04;;;;;;;18.65;16.40;;;;;;;9.68;100.00;99044.62;1825810;77;21035;-58
2022/10/27 06:26:31;;;;;;;21.07;14.78;;;;;;;9.74;100.00;99043.61;1800379;77;20988;-60
2022/10/27 06:28:57;;;;;;;21.90;15.93;;;;;;;9.79;100.00;99037.48;1809922;77;21532;-61
2022/10/27 06:31:24;;;;;;;17.87;14.15;;;;;;;9.83;100.00;99036.70;1798424;79;21102;-62
2022/10/27 06:33:51;;;;;;;21.05;16.20;;;;;;;9.87;100.00;99045.03;1797017;79;21098;-59
2022/10/27 06:36:24;;;;;;;16.17;13.50;;;;;;;9.95;100.00;99047.20;1797597;78;21007;-61
2022/10/27 06:38:52;;;;;;;17.00;14.25;;;;;;;9.99;100.00;99052.29;1764130;80;21021;-58
2022/10/27 06:41:19;;;;;;;22.35;15.30;;;;;;;10.05;100.00;99054.75;1753391;81;21012;-59
2022/10/27 06:43:46;;;;;;;18.37;14.28;;;;;;;10.12;100.00;99055.87;1754557;80;22076;-60
2022/10/27 06:46:13;;;;;;;18.20;15.80;;;;;;;10.19;100.00;99055.11;1811358;77;21042;-58
2022/10/27 06:48:40;;;;;;;17.50;14.75;;;;;;;10.24;100.00;99056.47;1838061;77;20994;-58
2022/10/27 06:51:08;;;;;;;14.47;12.60;;;;;;;10.27;100.00;99063.95;1815085;77;21057;-59
2022/10/27 06:53:36;;;;;;;15.85;13.98;;;;;;;10.30;100.00;99062.09;1813619;78;21098;-60
2022/10/27 06:56:03;;;;;;;17.10;14.65;;;;;;;10.33;100.00;99068.80;1784019;78;21226;-60
2022/10/27 06:58:38;;;;;;;16.57;14.60;;;;;;;10.35;100.00;99074.17;1798221;77;21036;-64
2022/10/27 07:01:05;;;;;;;17.12;14.05;;;;;;;10.35;100.00;99074.17;1806196;77;21009;-58
2022/10/27 07:03:38;;;;;;;14.90;12.70;;;;;;;10.36;100.00;99070.44;1800630;77;21467;-59
2022/10/27 07:06:13;;;;;;;18.40;13.53;;;;;;;10.39;100.00;99072.57;1823443;77;21144;-59
2022/10/27 07:08:43;;;;;;;20.25;14.68;;;;;;;10.44;100.00;99073.94;1819795;77;21986;-60
2022/10/27 07:11:12;;;;;;;16.75;13.22;;;;;;;10.50;100.00;99073.42;1805889;77;21055;-59
2022/10/27 07:13:38;;;;;;;16.15;12.88;;;;;;;10.55;100.00;99074.23;1814307;77;21463;-59
2022/10/27 07:16:07;;;;;;;14.53;12.55;;;;;;;10.58;100.00;99073.70;1794045;78;21057;-61
2022/10/27 07:18:33;;;;;;;15.78;11.95;;;;;;;10.61;100.00;99087.92;1805400;77;21011;-59
2022/10/27 07:21:02;;;;;;;15.70;12.70;;;;;;;10.62;100.00;99084.16;1808885;77;20897;-60
2022/10/27 07:23:28;;;;;;;13.75;12.28;;;;;;;10.66;100.00;99091.96;1807270;77;21490;-60
2022/10/27 07:25:55;;;;;;;14.20;12.47;;;;;;;10.69;100.00;99088.73;1798011;77;20964;-59
2022/10/27 07:28:22;;;;;;;14.58;11.57;;;;;;;10.72;100.00;99097.59;1811372;77;21141;-60
2022/10/27 07:30:56;;;;;;;16.87;12.33;;;;;;;10.79;100.00;99099.48;1743544;79;21592;-63
2022/10/27 07:33:29;;;;;;;17.40;12.90;;;;;;;10.87;100.00;99101.66;1724343;79;21578;-60
2022/10/27 07:35:56;;;;;;;19.02;12.30;;;;;;;10.99;100.00;99097.39;1771316;79;21006;-60
2022/10/27 07:38:22;;;;;;;15.25;12.47;;;;;;;11.08;100.00;99095.78;1769025;79;21542;-61
2022/10/27 07:40:49;;;;;;;14.13;11.60;;;;;;;11.21;100.00;99101.17;1787796;79;21023;-60
2022/10/27 07:43:16;;;;;;;13.30;10.05;;;;;;;11.30;100.00;99105.73;1769211;80;21082;-60
2022/10/27 07:45:43;;;;;;;15.28;11.50;;;;;;;11.39;100.00;99106.80;1777100;80;21122;-60
2022/10/27 07:48:14;;;;;;;15.23;11.33;;;;;;;11.36;100.00;99111.89;1765809;79;20986;-61
2022/10/27 07:50:42;;;;;;;14.35;11.65;;;;;;;11.35;100.00;99117.78;1738986;81;21094;-61
2022/10/27 07:53:09;;;;;;;16.12;11.88;;;;;;;11.39;100.00;99116.73;1721312;82;21050;-61
2022/10/27 07:55:37;;;;;;;14.45;11.08;;;;;;;11.44;100.00;99116.73;1749395;80;21044;-59
2022/10/27 07:58:13;;;;;;;13.93;10.68;;;;;;;11.51;100.00;99111.38;1750154;81;21302;-61
2022/10/27 08:00:43;;;;;;;14.75;11.70;;;;;;;11.60;100.00;99113.78;1800635;77;37501;-60
2022/10/27 08:03:14;;;;;;;15.00;10.55;;;;;;;11.65;100.00;99116.98;1814002;78;20889;-62
2022/10/27 08:05:41;;;;;;;13.80;11.73;;;;;;;11.70;100.00;99118.36;1803844;77;21086;-62
2022/10/27 08:08:08;;;;;;;15.20;12.05;;;;;;;11.69;99.92;99114.05;1744534;79;21060;-61
2022/10/27 08:10:37;;;;;;;14.83;11.53;;;;;;;11.65;100.00;99119.67;1745655;80;21123;-62
2022/10/27 08:13:04;;;;;;;14.10;12.00;;;;;;;11.70;100.00;99118.89;1750481;80;20971;-60
2022/10/27 08:15:32;;;;;;;16.12;11.88;;;;;;;11.79;99.84;99123.45;1748796;80;21459;-61
2022/10/27 08:18:03;;;;;;;14.10;11.60;;;;;;;11.82;99.64;99120.23;1719696;82;21078;-61
2022/10/27 08:20:37;;;;;;;14.50;12.25;;;;;;;11.87;99.44;99113.48;1814098;77;21085;-59
2022/10/27 08:23:06;;;;;;;17.60;11.90;;;;;;;11.94;99.54;99119.38;1815835;77;21083;-58
2022/10/27 08:25:32;;;;;;;13.50;11.28;;;;;;;12.04;99.49;99117.21;1814826;77;21054;-60
2022/10/27 08:27:59;;;;;;;12.37;10.50;;;;;;;12.13;99.12;99126.34;1803718;77;20996;-60
2022/10/27 08:30:30;;;;;;;12.43;10.78;;;;;;;12.16;99.10;99127.93;1801725;77;21498;-60
2022/10/27 08:32:59;;;;;;;18.20;11.03;;;;;;;12.14;98.68;99128.75;1805507;77;21080;-60
2022/10/27 08:35:26;;;;;;;12.55;10.05;;;;;;;12.17;98.56;99134.12;1806519;77;21832;-59
2022/10/27 08:41:23;;;;;;;29.05;14.23;;;;;;;12.30;98.22;99135.68;1788664;77;21131;-60
2022/10/27 08:44:11;;;;;;;32.28;14.70;;;;;;;12.40;97.60;99130.00;1795787;78;21059;-60
2022/10/27 08:46:54;;;;;;;28.75;14.68;;;;;;;12.50;97.04;99128.62;1820038;77;20956;-61
2022/10/27 08:49:46;;;;;;;28.12;14.80;;;;;;;12.59;96.76;99125.09;1806581;77;22088;-61
2022/10/27 08:52:29;;;;;;;16.52;12.58;;;;;;;12.65;96.61;99121.83;1797426;78;21626;-62
2022/10/27 08:55:14;;;;;;;17.12;12.78;;;;;;;12.74;96.25;99125.58;1794977;77;21073;-61
2022/10/27 08:58:03;;;;;;;25.43;11.97;;;;;;;12.78;95.93;99123.39;1806100;78;21061;-59
2022/10/27 09:00:52;;;;;;;21.35;12.30;;;;;;;12.84;95.63;99117.43;1804958;78;21125;-60
2022/10/27 09:03:40;;;;;;;17.20;11.93;;;;;;;12.90;95.28;99125.22;1809663;78;21635;-60
2022/10/27 09:06:26;;;;;;;17.35;10.60;;;;;;;12.93;94.76;99125.20;1808682;79;21065;-59
2022/10/27 09:09:20;;;;;;;13.20;9.53;;;;;;;12.92;94.15;99128.42;1814080;77;21475;-59
2022/10/27 09:12:30;;;;;;;13.78;9.58;;;;;;;12.91;93.89;99130.03;1812449;77;21125;-61
2022/10/27 09:15:24;;;;;;;14.53;8.90;;;;;;;12.90;93.84;99127.09;1831189;77;21008;-59
2022/10/27 09:18:05;;;;;;;14.53;8.05;;;;;;;12.88;93.50;99131.95;1803256;77;21108;-60
2022/10/27 09:20:43;;;;;;;16.00;9.05;;;;;;;12.87;92.88;99133.02;1804382;77;21535;-66
2022/10/27 09:23:16;;;;;;;12.05;8.83;;;;;;;12.83;92.84;99133.31;1788306;78;21081;-60
2022/10/27 09:25:45;;;;;;;12.88;8.90;;;;;;;12.77;92.60;99133.06;1743728;80;21476;-60
2022/10/27 09:28:35;;;;;;;11.40;8.45;;;;;;;12.70;92.07;99132.56;1766893;79;21720;-59
2022/10/27 09:31:03;;;;;;;12.07;8.65;;;;;;;12.63;92.31;99137.43;1752856;79;21229;-58
2022/10/27 09:33:33;;;;;;;14.23;8.98;;;;;;;12.63;92.66;99138.77;1761026;80;21505;-59
2022/10/27 09:36:13;;;;;;;12.90;8.80;;;;;;;12.65;92.60;99136.08;1768243;78;21130;-60
2022/10/27 09:38:40;;;;;;;12.18;9.05;;;;;;;12.67;92.47;99137.16;1767449;80;21093;-59
2022/10/27 09:41:07;;;;;;;11.68;8.98;;;;;;;12.65;92.63;99127.20;1806681;77;21023;-60
2022/10/27 09:43:35;;;;;;;11.12;8.45;;;;;;;12.66;92.60;99125.60;1808842;78;21269;-60
2022/10/27 09:46:23;;;;;;;14.05;10.55;;;;;;;12.67;92.47;99121.03;1778658;77;20974;-60
2022/10/27 09:48:55;;;;;;;14.35;10.45;;;;;;;12.67;92.53;99125.07;1799864;77;21090;-61
2022/10/27 09:51:26;;;;;;;10.30;8.43;;;;;;;12.72;92.93;99123.14;1823226;77;21438;-60
2022/10/27 09:53:53;;;;;;;12.63;9.35;;;;;;;12.82;92.81;99118.25;1800937;77;21043;-60
2022/10/27 09:56:25;;;;;;;14.07;10.18;;;;;;;12.92;92.73;99111.48;1799172;77;21241;-60
2022/10/27 09:59:12;;;;;;;12.58;9.23;;;;;;;13.02;92.36;99111.42;1803205;77;21081;-61
2022/10/27 10:01:56;;;;;;;11.83;8.55;;;;;;;13.10;92.26;99111.38;1811832;77;20988;-61
2022/10/27 10:04:22;;;;;;;13.30;9.25;;;;;;;13.21;91.75;99107.03;1799325;78;21150;-59
2022/10/27 10:07:01;;;;;;;13.38;9.20;;;;;;;13.30;91.57;99104.53;1810026;77;20995;-59
2022/10/27 10:09:31;;;;;;;13.28;9.30;;;;;;;13.36;90.95;99109.59;1814648;77;22361;-59
2022/10/27 10:12:23;;;;;;;15.38;9.60;;;;;;;13.41;90.03;99101.48;1795311;77;20857;-59
2022/10/27 10:15:11;;;;;;;11.90;9.65;;;;;;;13.45;90.15;99104.39;1811673;77;20927;-60
2022/10/27 10:17:42;;;;;;;16.12;9.43;;;;;;;13.47;89.65;99105.72;1787160;77;21065;-60
2022/10/27 10:20:41;;;;;;;11.43;8.90;;;;;;;13.47;89.37;99107.06;1810017;78;21074;-59
2022/10/27 10:23:24;;;;;;;11.88;10.05;;;;;;;13.52;89.01;99114.30;1804215;78;21662;-61
2022/10/27 10:25:55;;;;;;;17.30;10.45;;;;;;;13.54;89.02;99108.89;1798917;77;21501;-60
2022/10/27 10:28:33;;;;;;;15.05;10.93;;;;;;;13.54;88.85;99118.88;1815699;77;21419;-60
2022/10/27 10:31:05;;;;;;;13.70;11.05;;;;;;;13.54;88.86;99119.66;1808700;77;21160;-59
2022/10/27 10:33:35;;;;;;;14.13;11.20;;;;;;;13.52;88.68;99121.83;1803191;77;21577;-61
2022/10/27 10:36:26;;;;;;;14.33;10.40;;;;;;;13.48;88.63;99120.80;1805553;77;21117;-60
2022/10/27 10:38:56;;;;;;;13.70;10.60;;;;;;;13.43;88.57;99124.06;1805601;77;20927;-61
2022/10/27 10:41:24;;;;;;;16.52;11.63;;;;;;;13.39;88.79;99123.02;1816225;77;21115;-61
2022/10/27 10:44:13;;;;;;;13.32;11.90;;;;;;;13.34;89.03;99124.41;1803673;77;20944;-60
2022/10/27 10:46:53;;;;;;;15.53;11.70;;;;;;;13.30;89.26;99120.14;1808663;77;21082;-58
2022/10/27 10:49:28;;;;;;;13.78;12.28;;;;;;;13.24;89.50;99123.93;1810813;77;21101;-57
2022/10/27 10:51:58;;;;;;;12.53;11.22;;;;;;;13.19;89.72;99115.11;1813011;77;21031;-59
2022/10/27 10:54:36;;;;;;;12.88;10.08;;;;;;;13.15;89.95;99120.23;1802664;78;21423;-59
2022/10/27 10:57:03;;;;;;;11.48;10.30;;;;;;;13.28;90.62;99116.12;1804213;77;21027;-60
2022/10/27 10:59:31;;;;;;;10.65;9.50;;;;;;;13.54;90.96;99109.45;1788646;78;21003;-61
2022/10/27 11:02:31;;;;;;;13.83;10.85;;;;;;;13.83;89.90;99111.59;1805583;77;21765;-60
2022/10/27 11:05:11;;;;;;;14.85;11.57;;;;;;;13.99;88.97;99102.84;1811947;77;20952;-60
2022/10/27 11:07:38;;;;;;;13.93;9.95;;;;;;;14.20;88.13;99105.57;1804123;77;21538;-60
2022/10/27 11:10:32;;;;;;;12.88;9.60;;;;;;;14.36;87.53;99101.64;1792419;77;21015;-60
2022/10/27 11:13:18;;;;;;;12.33;8.65;;;;;;;14.53;86.98;99101.94;1808732;77;26840;-60
2022/10/27 11:15:58;;;;;;;11.93;9.20;;;;;;;14.76;86.21;99098.43;1799511;77;21860;-63
2022/10/27 11:18:43;;;;;;;14.28;9.30;;;;;;;14.95;85.28;99099.24;1810626;77;21059;-60
2022/10/27 11:21:25;;;;;;;9.57;8.20;;;;;;;15.14;84.37;99096.53;1801014;77;21143;-59
2022/10/27 11:23:57;;;;;;;12.05;8.25;;;;;;;15.31;82.78;99096.01;1808919;78;21030;-61
2022/10/27 11:26:34;;;;;;;9.18;7.65;;;;;;;15.43;81.96;99094.98;1775438;78;21453;-58
2022/10/27 11:29:42;;;;;;;10.08;7.15;;;;;;;15.56;80.66;99094.27;1795358;78;21423;-59
2022/10/27 11:32:29;;;;;;;11.20;7.10;;;;;;;15.67;78.93;99097.84;1802528;77;21568;-58
2022/10/27 11:35:27;;;;;;;10.88;8.50;;;;;;;15.66;75.29;99098.16;1805149;77;21156;-61
2022/10/27 11:38:19;;;;;;;14.40;8.33;;;;;;;15.54;75.25;99105.91;1831056;77;21026;-58
2022/10/27 11:40:58;;;;;;;8.58;7.15;;;;;;;15.49;76.07;99104.11;1807480;77;21548;-59
2022/10/27 11:43:36;;;;;;;9.58;6.90;;;;;;;15.52;75.27;99102.72;1803636;77;21206;-58
2022/10/27 11:46:16;;;;;;;12.65;8.25;;;;;;;15.55;75.64;99112.91;1776509;77;20987;-58
2022/10/27 11:48:59;;;;;;;10.60;8.00;;;;;;;15.55;73.98;99102.10;1806097;77;21518;-59
2022/10/27 11:51:41;;;;;;;12.82;9.00;;;;;;;15.58;74.88;99106.38;1797709;77;21081;-58
2022/10/27 11:54:09;;;;;;;10.58;9.48;;;;;;;15.75;74.76;99099.07;1806377;77;20956;-57
2022/10/27 11:57:04;;;;;;;9.20;8.15;;;;;;;15.93;74.15;99095.49;1813695;77;21076;-58